sensor_id;sensor_type;location;lat;lon;timestamp;P1;durP1;ratioP1;P2;durP2;ratioP2
12165;SDS011;6146;48.128;11.476;2023-04-03T00:00:03;10.27;;;8.07;;
12165;SDS011;6146;48.128;11.476;2023-04-03T00:02:29;10.00;;;8.67;;
12165;SDS011;6146;48.128;11.476;2023-04-03T00:04:55;9.87;;;8.50;;
12165;SDS011;6146;48.128;11.476;2023-04-03T00:07:21;11.20;;;8.97;;
12165;SDS011;6146;48.128;11.476;2023-04-03T00:09:46;9.73;;;8.23;;
12165;SDS011;6146;48.128;11.476;2023-04-03T00:12:12;9.47;;;8.10;;
12165;SDS011;6146;48.128;11.476;2023-04-03T00:14:37;9.63;;;8.47;;
12165;SDS011;6146;48.128;11.476;2023-04-03T00:17:03;8.93;;;7.73;;
12165;SDS011;6146;48.128;11.476;2023-04-03T00:19:28;9.07;;;8.17;;
12165;SDS011;6146;48.128;11.476;2023-04-03T00:21:55;9.20;;;8.30;;
12165;SDS011;6146;48.128;11.476;2023-04-03T00:24:20;9.97;;;8.73;;
12165;SDS011;6146;48.128;11.476;2023-04-03T00:26:46;9.43;;;7.80;;
12165;SDS011;6146;48.128;11.476;2023-04-03T00:29:11;9.10;;;8.20;;
12165;SDS011;6146;48.128;11.476;2023-04-03T00:31:37;8.43;;;7.27;;
12165;SDS011;6146;48.128;11.476;2023-04-03T00:34:02;10.10;;;8.00;;
12165;SDS011;6146;48.128;11.476;2023-04-03T00:36:28;11.30;;;8.30;;
12165;SDS011;6146;48.128;11.476;2023-04-03T00:38:54;8.73;;;7.83;;
12165;SDS011;6146;48.128;11.476;2023-04-03T00:41:19;10.93;;;8.07;;
12165;SDS011;6146;48.128;11.476;2023-04-03T00:43:45;8.03;;;7.23;;
12165;SDS011;6146;48.128;11.476;2023-04-03T00:46:10;10.57;;;8.23;;
12165;SDS011;6146;48.128;11.476;2023-04-03T00:48:40;9.17;;;7.93;;
12165;SDS011;6146;48.128;11.476;2023-04-03T00:51:13;9.80;;;7.67;;
12165;SDS011;6146;48.128;11.476;2023-04-03T00:56:21;9.23;;;7.60;;
12165;SDS011;6146;48.128;11.476;2023-04-03T00:58:59;7.67;;;6.90;;
12165;SDS011;6146;48.128;11.476;2023-04-03T01:01:31;8.93;;;7.63;;
12165;SDS011;6146;48.128;11.476;2023-04-03T01:03:58;8.00;;;6.87;;
12165;SDS011;6146;48.128;11.476;2023-04-03T01:06:26;9.03;;;6.83;;
12165;SDS011;6146;48.128;11.476;2023-04-03T01:08:55;9.10;;;7.20;;
12165;SDS011;6146;48.128;11.476;2023-04-03T01:11:21;7.87;;;7.17;;
12165;SDS011;6146;48.128;11.476;2023-04-03T01:13:47;8.23;;;7.17;;
12165;SDS011;6146;48.128;11.476;2023-04-03T01:16:14;7.70;;;6.97;;
12165;SDS011;6146;48.128;11.476;2023-04-03T01:18:40;9.37;;;7.67;;
12165;SDS011;6146;48.128;11.476;2023-04-03T01:26:13;9.97;;;8.07;;
12165;SDS011;6146;48.128;11.476;2023-04-03T01:28:39;7.63;;;6.83;;
12165;SDS011;6146;48.128;11.476;2023-04-03T01:33:49;7.90;;;7.10;;
12165;SDS011;6146;48.128;11.476;2023-04-03T01:36:16;9.33;;;7.53;;
12165;SDS011;6146;48.128;11.476;2023-04-03T01:38:49;7.40;;;6.70;;
12165;SDS011;6146;48.128;11.476;2023-04-03T01:41:15;8.40;;;7.53;;
12165;SDS011;6146;48.128;11.476;2023-04-03T01:43:41;7.67;;;6.97;;
12165;SDS011;6146;48.128;11.476;2023-04-03T01:46:07;7.73;;;6.77;;
12165;SDS011;6146;48.128;11.476;2023-04-03T01:48:32;8.07;;;7.27;;
12165;SDS011;6146;48.128;11.476;2023-04-03T01:50:58;8.50;;;7.60;;
12165;SDS011;6146;48.128;11.476;2023-04-03T01:53:24;8.13;;;7.30;;
12165;SDS011;6146;48.128;11.476;2023-04-03T01:55:50;7.33;;;6.63;;
12165;SDS011;6146;48.128;11.476;2023-04-03T01:58:15;10.07;;;7.53;;
12165;SDS011;6146;48.128;11.476;2023-04-03T02:00:41;9.13;;;8.13;;
12165;SDS011;6146;48.128;11.476;2023-04-03T02:03:06;9.97;;;7.27;;
12165;SDS011;6146;48.128;11.476;2023-04-03T02:05:32;8.23;;;7.30;;
12165;SDS011;6146;48.128;11.476;2023-04-03T02:07:57;8.80;;;7.90;;
12165;SDS011;6146;48.128;11.476;2023-04-03T02:10:23;9.47;;;7.53;;
12165;SDS011;6146;48.128;11.476;2023-04-03T02:12:49;11.03;;;7.60;;
12165;SDS011;6146;48.128;11.476;2023-04-03T02:15:15;8.47;;;7.53;;
12165;SDS011;6146;48.128;11.476;2023-04-03T02:17:41;8.70;;;7.60;;
12165;SDS011;6146;48.128;11.476;2023-04-03T02:20:07;8.53;;;7.63;;
12165;SDS011;6146;48.128;11.476;2023-04-03T02:22:33;8.27;;;7.47;;
12165;SDS011;6146;48.128;11.476;2023-04-03T02:24:58;8.47;;;7.60;;
12165;SDS011;6146;48.128;11.476;2023-04-03T02:27:24;8.07;;;7.27;;
12165;SDS011;6146;48.128;11.476;2023-04-03T02:29:49;8.07;;;7.27;;
12165;SDS011;6146;48.128;11.476;2023-04-03T02:32:15;7.80;;;7.07;;
12165;SDS011;6146;48.128;11.476;2023-04-03T02:34:40;8.27;;;6.90;;
12165;SDS011;6146;48.128;11.476;2023-04-03T02:37:06;7.87;;;7.00;;
12165;SDS011;6146;48.128;11.476;2023-04-03T02:39:31;8.20;;;7.07;;
12165;SDS011;6146;48.128;11.476;2023-04-03T02:41:57;7.90;;;6.67;;
12165;SDS011;6146;48.128;11.476;2023-04-03T02:44:22;7.70;;;7.00;;
12165;SDS011;6146;48.128;11.476;2023-04-03T02:46:48;7.37;;;6.53;;
12165;SDS011;6146;48.128;11.476;2023-04-03T02:49:14;7.87;;;7.03;;
12165;SDS011;6146;48.128;11.476;2023-04-03T02:51:40;7.30;;;6.60;;
12165;SDS011;6146;48.128;11.476;2023-04-03T02:54:06;7.33;;;6.43;;
12165;SDS011;6146;48.128;11.476;2023-04-03T02:56:32;7.03;;;6.33;;
12165;SDS011;6146;48.128;11.476;2023-04-03T02:58:58;6.70;;;6.00;;
12165;SDS011;6146;48.128;11.476;2023-04-03T03:01:23;7.07;;;6.10;;
12165;SDS011;6146;48.128;11.476;2023-04-03T03:03:49;7.10;;;6.00;;
12165;SDS011;6146;48.128;11.476;2023-04-03T03:06:15;6.60;;;5.90;;
12165;SDS011;6146;48.128;11.476;2023-04-03T03:08:42;6.97;;;6.13;;
12165;SDS011;6146;48.128;11.476;2023-04-03T03:11:08;6.80;;;5.73;;
12165;SDS011;6146;48.128;11.476;2023-04-03T03:13:34;6.43;;;5.83;;
12165;SDS011;6146;48.128;11.476;2023-04-03T03:16:00;7.70;;;5.73;;
12165;SDS011;6146;48.128;11.476;2023-04-03T03:18:26;7.03;;;5.40;;
12165;SDS011;6146;48.128;11.476;2023-04-03T03:20:52;6.03;;;4.93;;
12165;SDS011;6146;48.128;11.476;2023-04-03T03:23:18;6.13;;;5.53;;
12165;SDS011;6146;48.128;11.476;2023-04-03T03:25:44;6.27;;;5.60;;
12165;SDS011;6146;48.128;11.476;2023-04-03T03:28:09;6.70;;;5.47;;
12165;SDS011;6146;48.128;11.476;2023-04-03T03:30:36;5.33;;;4.83;;
12165;SDS011;6146;48.128;11.476;2023-04-03T03:33:02;6.37;;;5.67;;
12165;SDS011;6146;48.128;11.476;2023-04-03T03:35:27;5.97;;;5.37;;
12165;SDS011;6146;48.128;11.476;2023-04-03T03:37:53;5.00;;;4.50;;
12165;SDS011;6146;48.128;11.476;2023-04-03T03:40:18;5.50;;;5.00;;
12165;SDS011;6146;48.128;11.476;2023-04-03T03:42:44;5.73;;;4.97;;
12165;SDS011;6146;48.128;11.476;2023-04-03T03:45:10;5.73;;;5.23;;
12165;SDS011;6146;48.128;11.476;2023-04-03T03:47:35;5.00;;;4.57;;
12165;SDS011;6146;48.128;11.476;2023-04-03T03:50:01;5.03;;;4.53;;
12165;SDS011;6146;48.128;11.476;2023-04-03T03:52:27;6.13;;;5.03;;
12165;SDS011;6146;48.128;11.476;2023-04-03T03:54:54;5.17;;;4.67;;
12165;SDS011;6146;48.128;11.476;2023-04-03T03:57:20;5.20;;;4.70;;
12165;SDS011;6146;48.128;11.476;2023-04-03T03:59:46;5.60;;;5.00;;
12165;SDS011;6146;48.128;11.476;2023-04-03T04:02:12;5.50;;;4.97;;
12165;SDS011;6146;48.128;11.476;2023-04-03T04:04:38;5.13;;;4.63;;
12165;SDS011;6146;48.128;11.476;2023-04-03T04:07:03;5.60;;;5.03;;
12165;SDS011;6146;48.128;11.476;2023-04-03T04:09:29;6.23;;;5.17;;
12165;SDS011;6146;48.128;11.476;2023-04-03T04:11:54;5.90;;;4.80;;
12165;SDS011;6146;48.128;11.476;2023-04-03T04:14:20;4.90;;;4.40;;
12165;SDS011;6146;48.128;11.476;2023-04-03T04:16:46;4.67;;;4.27;;
12165;SDS011;6146;48.128;11.476;2023-04-03T04:19:12;5.40;;;4.50;;
12165;SDS011;6146;48.128;11.476;2023-04-03T04:21:38;4.73;;;4.33;;
12165;SDS011;6146;48.128;11.476;2023-04-03T04:24:04;6.67;;;5.00;;
12165;SDS011;6146;48.128;11.476;2023-04-03T04:26:30;5.67;;;4.60;;
12165;SDS011;6146;48.128;11.476;2023-04-03T04:28:56;4.40;;;4.00;;
12165;SDS011;6146;48.128;11.476;2023-04-03T04:31:22;5.67;;;4.87;;
12165;SDS011;6146;48.128;11.476;2023-04-03T04:33:47;4.90;;;4.40;;
12165;SDS011;6146;48.128;11.476;2023-04-03T04:36:13;4.83;;;4.33;;
12165;SDS011;6146;48.128;11.476;2023-04-03T04:38:39;5.00;;;4.50;;
12165;SDS011;6146;48.128;11.476;2023-04-03T04:41:05;4.80;;;4.40;;
12165;SDS011;6146;48.128;11.476;2023-04-03T04:43:31;5.00;;;4.50;;
12165;SDS011;6146;48.128;11.476;2023-04-03T04:46:07;5.43;;;4.93;;
12165;SDS011;6146;48.128;11.476;2023-04-03T04:48:34;4.90;;;3.90;;
12165;SDS011;6146;48.128;11.476;2023-04-03T04:51:01;5.20;;;4.60;;
12165;SDS011;6146;48.128;11.476;2023-04-03T04:53:27;4.90;;;4.50;;
12165;SDS011;6146;48.128;11.476;2023-04-03T04:55:53;4.70;;;4.30;;
12165;SDS011;6146;48.128;11.476;2023-04-03T04:58:19;4.60;;;4.07;;
12165;SDS011;6146;48.128;11.476;2023-04-03T05:00:45;5.50;;;4.37;;
12165;SDS011;6146;48.128;11.476;2023-04-03T05:03:10;5.00;;;4.50;;
12165;SDS011;6146;48.128;11.476;2023-04-03T05:05:37;5.40;;;4.70;;
12165;SDS011;6146;48.128;11.476;2023-04-03T05:08:02;4.50;;;4.07;;
12165;SDS011;6146;48.128;11.476;2023-04-03T05:10:28;4.83;;;4.43;;
12165;SDS011;6146;48.128;11.476;2023-04-03T05:12:54;4.33;;;3.93;;
12165;SDS011;6146;48.128;11.476;2023-04-03T05:15:20;5.97;;;4.50;;
12165;SDS011;6146;48.128;11.476;2023-04-03T05:17:46;5.43;;;4.70;;
12165;SDS011;6146;48.128;11.476;2023-04-03T05:20:11;5.27;;;4.47;;
12165;SDS011;6146;48.128;11.476;2023-04-03T05:22:37;5.00;;;4.50;;
12165;SDS011;6146;48.128;11.476;2023-04-03T05:25:03;4.77;;;4.17;;
12165;SDS011;6146;48.128;11.476;2023-04-03T05:27:29;4.93;;;4.13;;
12165;SDS011;6146;48.128;11.476;2023-04-03T05:29:55;4.90;;;4.27;;
12165;SDS011;6146;48.128;11.476;2023-04-03T05:32:21;6.30;;;4.33;;
12165;SDS011;6146;48.128;11.476;2023-04-03T05:34:48;4.83;;;4.33;;
12165;SDS011;6146;48.128;11.476;2023-04-03T05:37:13;4.93;;;4.43;;
12165;SDS011;6146;48.128;11.476;2023-04-03T05:39:39;6.87;;;5.10;;
12165;SDS011;6146;48.128;11.476;2023-04-03T05:42:06;5.17;;;4.63;;
12165;SDS011;6146;48.128;11.476;2023-04-03T05:44:32;8.63;;;5.03;;
12165;SDS011;6146;48.128;11.476;2023-04-03T05:46:58;5.63;;;4.80;;
12165;SDS011;6146;48.128;11.476;2023-04-03T05:49:24;4.90;;;4.37;;
12165;SDS011;6146;48.128;11.476;2023-04-03T05:51:49;5.93;;;5.17;;
12165;SDS011;6146;48.128;11.476;2023-04-03T05:54:20;5.33;;;4.80;;
12165;SDS011;6146;48.128;11.476;2023-04-03T05:56:49;6.10;;;4.67;;
12165;SDS011;6146;48.128;11.476;2023-04-03T05:59:15;5.63;;;4.43;;
12165;SDS011;6146;48.128;11.476;2023-04-03T06:01:44;4.73;;;4.20;;
12165;SDS011;6146;48.128;11.476;2023-04-03T06:04:10;5.50;;;4.33;;
12165;SDS011;6146;48.128;11.476;2023-04-03T06:06:53;5.33;;;4.80;;
12165;SDS011;6146;48.128;11.476;2023-04-03T06:09:22;5.47;;;4.60;;
12165;SDS011;6146;48.128;11.476;2023-04-03T06:11:50;5.37;;;4.80;;
12165;SDS011;6146;48.128;11.476;2023-04-03T06:14:17;5.30;;;4.80;;
12165;SDS011;6146;48.128;11.476;2023-04-03T06:16:43;6.17;;;4.27;;
12165;SDS011;6146;48.128;11.476;2023-04-03T06:19:08;5.97;;;4.43;;
12165;SDS011;6146;48.128;11.476;2023-04-03T06:21:34;5.90;;;4.43;;
12165;SDS011;6146;48.128;11.476;2023-04-03T06:24:00;6.13;;;5.23;;
12165;SDS011;6146;48.128;11.476;2023-04-03T06:26:27;5.53;;;4.60;;
12165;SDS011;6146;48.128;11.476;2023-04-03T06:28:53;5.10;;;4.50;;
12165;SDS011;6146;48.128;11.476;2023-04-03T06:31:18;5.70;;;4.63;;
12165;SDS011;6146;48.128;11.476;2023-04-03T06:33:44;5.60;;;5.07;;
12165;SDS011;6146;48.128;11.476;2023-04-03T06:36:10;6.67;;;4.80;;
12165;SDS011;6146;48.128;11.476;2023-04-03T06:38:37;5.63;;;5.13;;
12165;SDS011;6146;48.128;11.476;2023-04-03T06:41:03;5.03;;;4.53;;
12165;SDS011;6146;48.128;11.476;2023-04-03T06:43:28;5.20;;;4.40;;
12165;SDS011;6146;48.128;11.476;2023-04-03T06:45:56;5.30;;;4.80;;
12165;SDS011;6146;48.128;11.476;2023-04-03T06:48:21;5.30;;;4.60;;
12165;SDS011;6146;48.128;11.476;2023-04-03T06:50:48;6.17;;;4.83;;
12165;SDS011;6146;48.128;11.476;2023-04-03T06:53:13;5.47;;;4.97;;
12165;SDS011;6146;48.128;11.476;2023-04-03T06:55:39;6.13;;;4.80;;
12165;SDS011;6146;48.128;11.476;2023-04-03T06:58:06;5.17;;;4.67;;
12165;SDS011;6146;48.128;11.476;2023-04-03T07:00:32;4.97;;;4.47;;
12165;SDS011;6146;48.128;11.476;2023-04-03T07:02:58;5.10;;;4.60;;
12165;SDS011;6146;48.128;11.476;2023-04-03T07:05:24;5.53;;;4.47;;
12165;SDS011;6146;48.128;11.476;2023-04-03T07:07:50;5.57;;;4.57;;
12165;SDS011;6146;48.128;11.476;2023-04-03T07:10:16;4.67;;;4.10;;
12165;SDS011;6146;48.128;11.476;2023-04-03T07:12:42;4.30;;;3.70;;
12165;SDS011;6146;48.128;11.476;2023-04-03T07:15:08;5.03;;;4.00;;
12165;SDS011;6146;48.128;11.476;2023-04-03T07:17:34;5.43;;;3.93;;
12165;SDS011;6146;48.128;11.476;2023-04-03T07:20:00;4.40;;;4.00;;
12165;SDS011;6146;48.128;11.476;2023-04-03T07:22:26;5.00;;;3.97;;
12165;SDS011;6146;48.128;11.476;2023-04-03T07:24:52;5.00;;;4.50;;
12165;SDS011;6146;48.128;11.476;2023-04-03T07:27:18;5.43;;;4.23;;
12165;SDS011;6146;48.128;11.476;2023-04-03T07:29:43;4.50;;;4.10;;
12165;SDS011;6146;48.128;11.476;2023-04-03T07:32:09;4.70;;;4.30;;
12165;SDS011;6146;48.128;11.476;2023-04-03T07:34:35;5.00;;;4.20;;
12165;SDS011;6146;48.128;11.476;2023-04-03T07:37:01;4.60;;;4.20;;
12165;SDS011;6146;48.128;11.476;2023-04-03T07:39:28;4.20;;;3.80;;
12165;SDS011;6146;48.128;11.476;2023-04-03T07:41:54;5.07;;;4.57;;
12165;SDS011;6146;48.128;11.476;2023-04-03T07:44:22;5.50;;;4.10;;
12165;SDS011;6146;48.128;11.476;2023-04-03T07:46:49;4.63;;;4.17;;
12165;SDS011;6146;48.128;11.476;2023-04-03T07:49:15;5.53;;;4.20;;
12165;SDS011;6146;48.128;11.476;2023-04-03T07:51:42;4.60;;;4.20;;
12165;SDS011;6146;48.128;11.476;2023-04-03T07:54:09;4.70;;;3.73;;
12165;SDS011;6146;48.128;11.476;2023-04-03T07:56:34;5.87;;;4.43;;
12165;SDS011;6146;48.128;11.476;2023-04-03T07:59:00;4.83;;;4.30;;
12165;SDS011;6146;48.128;11.476;2023-04-03T08:01:25;4.83;;;4.33;;
12165;SDS011;6146;48.128;11.476;2023-04-03T08:03:51;4.90;;;4.23;;
12165;SDS011;6146;48.128;11.476;2023-04-03T08:06:17;5.77;;;4.77;;
12165;SDS011;6146;48.128;11.476;2023-04-03T08:08:42;5.00;;;4.53;;
12165;SDS011;6146;48.128;11.476;2023-04-03T08:11:09;5.67;;;5.13;;
12165;SDS011;6146;48.128;11.476;2023-04-03T08:13:35;5.23;;;4.73;;
12165;SDS011;6146;48.128;11.476;2023-04-03T08:16:08;6.60;;;5.87;;
12165;SDS011;6146;48.128;11.476;2023-04-03T08:18:35;5.00;;;4.43;;
12165;SDS011;6146;48.128;11.476;2023-04-03T08:21:01;5.20;;;4.80;;
12165;SDS011;6146;48.128;11.476;2023-04-03T08:23:30;7.57;;;5.13;;
12165;SDS011;6146;48.128;11.476;2023-04-03T08:25:56;6.87;;;5.30;;
12165;SDS011;6146;48.128;11.476;2023-04-03T08:28:21;5.70;;;5.20;;
12165;SDS011;6146;48.128;11.476;2023-04-03T08:30:47;6.37;;;5.77;;
12165;SDS011;6146;48.128;11.476;2023-04-03T08:33:12;7.03;;;5.47;;
12165;SDS011;6146;48.128;11.476;2023-04-03T08:35:41;5.70;;;5.20;;
12165;SDS011;6146;48.128;11.476;2023-04-03T08:38:07;6.17;;;5.37;;
12165;SDS011;6146;48.128;11.476;2023-04-03T08:40:33;5.77;;;5.20;;
12165;SDS011;6146;48.128;11.476;2023-04-03T08:43:03;6.60;;;5.40;;
12165;SDS011;6146;48.128;11.476;2023-04-03T08:45:59;8.73;;;5.20;;
12165;SDS011;6146;48.128;11.476;2023-04-03T08:48:27;5.60;;;5.10;;
12165;SDS011;6146;48.128;11.476;2023-04-03T08:51:03;6.10;;;5.50;;
12165;SDS011;6146;48.128;11.476;2023-04-03T08:53:36;6.33;;;5.30;;
12165;SDS011;6146;48.128;11.476;2023-04-03T08:56:08;6.30;;;5.70;;
12165;SDS011;6146;48.128;11.476;2023-04-03T08:58:41;7.10;;;5.83;;
12165;SDS011;6146;48.128;11.476;2023-04-03T09:01:20;6.10;;;5.50;;
12165;SDS011;6146;48.128;11.476;2023-04-03T09:03:52;6.00;;;4.97;;
12165;SDS011;6146;48.128;11.476;2023-04-03T09:06:22;5.87;;;5.23;;
12165;SDS011;6146;48.128;11.476;2023-04-03T09:17:26;5.37;;;4.87;;
12165;SDS011;6146;48.128;11.476;2023-04-03T09:20:39;4.87;;;4.40;;
12165;SDS011;6146;48.128;11.476;2023-04-03T09:23:04;5.67;;;5.17;;
12165;SDS011;6146;48.128;11.476;2023-04-03T09:25:56;10.10;;;5.17;;
12165;SDS011;6146;48.128;11.476;2023-04-03T09:28:29;6.20;;;5.20;;
12165;SDS011;6146;48.128;11.476;2023-04-03T09:31:00;6.37;;;5.57;;
12165;SDS011;6146;48.128;11.476;2023-04-03T09:33:28;5.47;;;4.93;;
12165;SDS011;6146;48.128;11.476;2023-04-03T09:35:55;6.57;;;5.07;;
12165;SDS011;6146;48.128;11.476;2023-04-03T09:38:21;5.40;;;4.87;;
12165;SDS011;6146;48.128;11.476;2023-04-03T09:41:02;5.73;;;5.20;;
12165;SDS011;6146;48.128;11.476;2023-04-03T09:43:38;6.43;;;5.20;;
12165;SDS011;6146;48.128;11.476;2023-04-03T09:46:18;5.77;;;4.93;;
12165;SDS011;6146;48.128;11.476;2023-04-03T09:49:17;6.37;;;5.10;;
12165;SDS011;6146;48.128;11.476;2023-04-03T09:51:35;5.30;;;4.80;;
12165;SDS011;6146;48.128;11.476;2023-04-03T09:54:01;5.87;;;5.33;;
12165;SDS011;6146;48.128;11.476;2023-04-03T09:57:00;7.67;;;5.20;;
12165;SDS011;6146;48.128;11.476;2023-04-03T09:59:31;5.13;;;4.63;;
12165;SDS011;6146;48.128;11.476;2023-04-03T10:02:02;7.40;;;5.30;;
12165;SDS011;6146;48.128;11.476;2023-04-03T10:04:49;5.53;;;5.03;;
12165;SDS011;6146;48.128;11.476;2023-04-03T10:09:59;5.60;;;5.10;;
12165;SDS011;6146;48.128;11.476;2023-04-03T10:12:28;6.40;;;5.30;;
12165;SDS011;6146;48.128;11.476;2023-04-03T10:15:00;5.37;;;4.97;;
12165;SDS011;6146;48.128;11.476;2023-04-03T10:22:45;6.07;;;5.40;;
12165;SDS011;6146;48.128;11.476;2023-04-03T10:28:21;7.53;;;5.80;;
12165;SDS011;6146;48.128;11.476;2023-04-03T10:31:08;7.60;;;5.53;;
12165;SDS011;6146;48.128;11.476;2023-04-03T10:43:55;6.47;;;5.60;;
12165;SDS011;6146;48.128;11.476;2023-04-03T10:46:38;6.20;;;5.60;;
12165;SDS011;6146;48.128;11.476;2023-04-03T10:49:14;6.50;;;5.43;;
12165;SDS011;6146;48.128;11.476;2023-04-03T10:51:48;5.70;;;5.10;;
12165;SDS011;6146;48.128;11.476;2023-04-03T10:54:30;5.70;;;4.83;;
12165;SDS011;6146;48.128;11.476;2023-04-03T10:57:10;5.60;;;5.10;;
12165;SDS011;6146;48.128;11.476;2023-04-03T10:59:56;4.80;;;4.30;;
12165;SDS011;6146;48.128;11.476;2023-04-03T11:05:03;5.07;;;4.30;;
12165;SDS011;6146;48.128;11.476;2023-04-03T11:07:50;4.23;;;3.83;;
12165;SDS011;6146;48.128;11.476;2023-04-03T11:15:38;6.63;;;4.00;;
12165;SDS011;6146;48.128;11.476;2023-04-03T11:18:06;5.57;;;4.30;;
12165;SDS011;6146;48.128;11.476;2023-04-03T11:20:37;4.03;;;3.50;;
12165;SDS011;6146;48.128;11.476;2023-04-03T11:23:25;5.37;;;3.60;;
12165;SDS011;6146;48.128;11.476;2023-04-03T11:25:54;5.00;;;3.50;;
12165;SDS011;6146;48.128;11.476;2023-04-03T11:28:24;5.13;;;4.13;;
12165;SDS011;6146;48.128;11.476;2023-04-03T11:33:45;3.93;;;3.40;;
12165;SDS011;6146;48.128;11.476;2023-04-03T11:36:29;4.57;;;3.80;;
12165;SDS011;6146;48.128;11.476;2023-04-03T11:38:58;5.67;;;3.53;;
12165;SDS011;6146;48.128;11.476;2023-04-03T11:41:31;4.97;;;3.70;;
12165;SDS011;6146;48.128;11.476;2023-04-03T11:44:25;4.70;;;3.40;;
12165;SDS011;6146;48.128;11.476;2023-04-03T11:47:01;4.50;;;3.67;;
12165;SDS011;6146;48.128;11.476;2023-04-03T11:52:53;6.20;;;3.93;;
12165;SDS011;6146;48.128;11.476;2023-04-03T12:06:42;5.23;;;3.30;;
12165;SDS011;6146;48.128;11.476;2023-04-03T12:08:46;3.40;;;3.10;;
12165;SDS011;6146;48.128;11.476;2023-04-03T12:11:15;4.97;;;2.73;;
12165;SDS011;6146;48.128;11.476;2023-04-03T12:19:01;4.50;;;2.60;;
12165;SDS011;6146;48.128;11.476;2023-04-03T12:30:12;3.10;;;2.80;;
12165;SDS011;6146;48.128;11.476;2023-04-03T12:40:50;4.03;;;2.37;;
12165;SDS011;6146;48.128;11.476;2023-04-03T12:46:22;3.20;;;2.47;;
12165;SDS011;6146;48.128;11.476;2023-04-03T12:51:21;2.97;;;2.20;;
12165;SDS011;6146;48.128;11.476;2023-04-03T12:53:51;2.67;;;2.30;;
12165;SDS011;6146;48.128;11.476;2023-04-03T12:58:51;2.67;;;2.30;;
12165;SDS011;6146;48.128;11.476;2023-04-03T13:01:37;3.33;;;2.30;;
12165;SDS011;6146;48.128;11.476;2023-04-03T13:04:02;3.67;;;2.83;;
12165;SDS011;6146;48.128;11.476;2023-04-03T13:06:42;3.27;;;2.23;;
12165;SDS011;6146;48.128;11.476;2023-04-03T13:12:10;3.17;;;2.43;;
12165;SDS011;6146;48.128;11.476;2023-04-03T13:14:38;3.97;;;2.43;;
12165;SDS011;6146;48.128;11.476;2023-04-03T13:19:37;3.97;;;2.37;;
12165;SDS011;6146;48.128;11.476;2023-04-03T13:24:49;5.20;;;2.40;;
12165;SDS011;6146;48.128;11.476;2023-04-03T13:27:17;3.57;;;2.60;;
12165;SDS011;6146;48.128;11.476;2023-04-03T13:29:43;3.40;;;2.40;;
12165;SDS011;6146;48.128;11.476;2023-04-03T13:32:17;2.57;;;2.37;;
12165;SDS011;6146;48.128;11.476;2023-04-03T13:34:45;2.20;;;2.00;;
12165;SDS011;6146;48.128;11.476;2023-04-03T13:37:21;3.10;;;2.20;;
12165;SDS011;6146;48.128;11.476;2023-04-03T13:40:02;4.17;;;2.50;;
12165;SDS011;6146;48.128;11.476;2023-04-03T13:42:32;2.67;;;2.20;;
12165;SDS011;6146;48.128;11.476;2023-04-03T13:47:38;2.60;;;2.17;;
12165;SDS011;6146;48.128;11.476;2023-04-03T14:05:51;2.93;;;2.33;;
12165;SDS011;6146;48.128;11.476;2023-04-03T14:08:17;4.33;;;2.03;;
12165;SDS011;6146;48.128;11.476;2023-04-03T14:10:43;2.83;;;2.13;;
12165;SDS011;6146;48.128;11.476;2023-04-03T14:13:13;3.33;;;2.13;;
12165;SDS011;6146;48.128;11.476;2023-04-03T14:15:40;3.10;;;2.23;;
12165;SDS011;6146;48.128;11.476;2023-04-03T14:18:06;2.40;;;2.20;;
12165;SDS011;6146;48.128;11.476;2023-04-03T14:20:32;3.13;;;2.10;;
12165;SDS011;6146;48.128;11.476;2023-04-03T14:22:57;2.63;;;1.93;;
12165;SDS011;6146;48.128;11.476;2023-04-03T14:25:23;2.20;;;2.00;;
12165;SDS011;6146;48.128;11.476;2023-04-03T14:27:51;2.47;;;2.20;;
12165;SDS011;6146;48.128;11.476;2023-04-03T14:30:26;2.47;;;2.27;;
12165;SDS011;6146;48.128;11.476;2023-04-03T14:32:53;3.20;;;2.00;;
12165;SDS011;6146;48.128;11.476;2023-04-03T14:35:19;2.87;;;2.23;;
12165;SDS011;6146;48.128;11.476;2023-04-03T14:37:46;3.67;;;2.03;;
12165;SDS011;6146;48.128;11.476;2023-04-03T14:40:14;2.40;;;2.03;;
12165;SDS011;6146;48.128;11.476;2023-04-03T14:42:42;2.83;;;2.27;;
12165;SDS011;6146;48.128;11.476;2023-04-03T14:45:09;3.27;;;2.20;;
12165;SDS011;6146;48.128;11.476;2023-04-03T14:47:39;2.40;;;2.20;;
12165;SDS011;6146;48.128;11.476;2023-04-03T14:50:17;2.50;;;2.20;;
12165;SDS011;6146;48.128;11.476;2023-04-03T14:52:49;3.97;;;1.97;;
12165;SDS011;6146;48.128;11.476;2023-04-03T14:55:16;3.10;;;1.80;;
12165;SDS011;6146;48.128;11.476;2023-04-03T14:57:44;2.67;;;2.20;;
12165;SDS011;6146;48.128;11.476;2023-04-03T15:00:13;3.57;;;2.13;;
12165;SDS011;6146;48.128;11.476;2023-04-03T15:02:41;4.23;;;1.87;;
12165;SDS011;6146;48.128;11.476;2023-04-03T15:05:08;3.43;;;2.47;;
12165;SDS011;6146;48.128;11.476;2023-04-03T15:07:38;3.03;;;2.00;;
12165;SDS011;6146;48.128;11.476;2023-04-03T15:12:48;2.17;;;1.80;;
12165;SDS011;6146;48.128;11.476;2023-04-03T15:15:15;2.93;;;2.00;;
12165;SDS011;6146;48.128;11.476;2023-04-03T15:17:42;4.00;;;2.20;;
12165;SDS011;6146;48.128;11.476;2023-04-03T15:20:13;2.10;;;1.60;;
12165;SDS011;6146;48.128;11.476;2023-04-03T15:22:41;2.77;;;1.57;;
12165;SDS011;6146;48.128;11.476;2023-04-03T15:25:07;2.00;;;1.80;;
12165;SDS011;6146;48.128;11.476;2023-04-03T15:27:34;1.80;;;1.60;;
12165;SDS011;6146;48.128;11.476;2023-04-03T15:30:00;2.50;;;1.90;;
12165;SDS011;6146;48.128;11.476;2023-04-03T15:32:27;2.10;;;1.83;;
12165;SDS011;6146;48.128;11.476;2023-04-03T15:34:53;2.90;;;1.67;;
12165;SDS011;6146;48.128;11.476;2023-04-03T15:37:19;2.53;;;1.77;;
12165;SDS011;6146;48.128;11.476;2023-04-03T15:39:45;2.67;;;1.77;;
12165;SDS011;6146;48.128;11.476;2023-04-03T15:42:11;1.77;;;1.60;;
12165;SDS011;6146;48.128;11.476;2023-04-03T15:44:37;2.70;;;1.57;;
12165;SDS011;6146;48.128;11.476;2023-04-03T15:47:03;3.10;;;1.80;;
12165;SDS011;6146;48.128;11.476;2023-04-03T15:49:29;2.27;;;1.73;;
12165;SDS011;6146;48.128;11.476;2023-04-03T15:51:57;2.10;;;1.87;;
12165;SDS011;6146;48.128;11.476;2023-04-03T15:54:23;1.97;;;1.77;;
12165;SDS011;6146;48.128;11.476;2023-04-03T15:56:49;3.10;;;2.07;;
12165;SDS011;6146;48.128;11.476;2023-04-03T15:59:15;2.10;;;1.80;;
12165;SDS011;6146;48.128;11.476;2023-04-03T16:01:41;1.90;;;1.67;;
12165;SDS011;6146;48.128;11.476;2023-04-03T16:04:07;1.97;;;1.80;;
12165;SDS011;6146;48.128;11.476;2023-04-03T16:06:34;1.60;;;1.47;;
12165;SDS011;6146;48.128;11.476;2023-04-03T16:09:00;2.20;;;1.60;;
12165;SDS011;6146;48.128;11.476;2023-04-03T16:11:25;1.93;;;1.73;;
12165;SDS011;6146;48.128;11.476;2023-04-03T16:13:52;2.00;;;1.60;;
12165;SDS011;6146;48.128;11.476;2023-04-03T16:16:18;2.20;;;2.00;;
12165;SDS011;6146;48.128;11.476;2023-04-03T16:18:44;2.90;;;1.80;;
12165;SDS011;6146;48.128;11.476;2023-04-03T16:21:11;3.07;;;2.10;;
12165;SDS011;6146;48.128;11.476;2023-04-03T16:23:38;2.40;;;1.93;;
12165;SDS011;6146;48.128;11.476;2023-04-03T16:26:04;1.53;;;1.43;;
12165;SDS011;6146;48.128;11.476;2023-04-03T16:28:30;3.77;;;2.13;;
12165;SDS011;6146;48.128;11.476;2023-04-03T16:30:55;3.50;;;2.03;;
12165;SDS011;6146;48.128;11.476;2023-04-03T16:33:21;4.00;;;1.80;;
12165;SDS011;6146;48.128;11.476;2023-04-03T16:35:48;2.33;;;2.07;;
12165;SDS011;6146;48.128;11.476;2023-04-03T16:38:14;2.97;;;2.00;;
12165;SDS011;6146;48.128;11.476;2023-04-03T16:40:40;1.70;;;1.53;;
12165;SDS011;6146;48.128;11.476;2023-04-03T16:43:06;3.10;;;2.13;;
12165;SDS011;6146;48.128;11.476;2023-04-03T16:45:32;3.40;;;1.80;;
12165;SDS011;6146;48.128;11.476;2023-04-03T16:47:57;2.33;;;1.73;;
12165;SDS011;6146;48.128;11.476;2023-04-03T16:50:23;3.63;;;1.60;;
12165;SDS011;6146;48.128;11.476;2023-04-03T16:52:48;2.37;;;1.97;;
12165;SDS011;6146;48.128;11.476;2023-04-03T16:55:14;3.63;;;2.00;;
12165;SDS011;6146;48.128;11.476;2023-04-03T16:57:40;2.30;;;1.73;;